sensor_id;sensor_type;location;lat;lon;timestamp;P1;durP1;ratioP1;P2;durP2;ratioP2
17985;SDS011;9118;48.122;11.546;2022-07-10T00:01:51;5.82;;;4.63;;
17985;SDS011;9118;48.122;11.546;2022-07-10T00:04:18;6.67;;;5.30;;
17985;SDS011;9118;48.122;11.546;2022-07-10T00:06:46;7.97;;;5.70;;
17985;SDS011;9118;48.122;11.546;2022-07-10T00:09:31;6.07;;;5.47;;
17985;SDS011;9118;48.122;11.546;2022-07-10T00:12:01;6.95;;;5.43;;
17985;SDS011;9118;48.122;11.546;2022-07-10T00:14:35;10.18;;;5.72;;
17985;SDS011;9118;48.122;11.546;2022-07-10T00:17:04;8.13;;;5.00;;
17985;SDS011;9118;48.122;11.546;2022-07-10T00:19:34;5.57;;;4.95;;
17985;SDS011;9118;48.122;11.546;2022-07-10T00:22:03;6.35;;;5.10;;
17985;SDS011;9118;48.122;11.546;2022-07-10T00:24:31;6.63;;;5.18;;
17985;SDS011;9118;48.122;11.546;2022-07-10T00:26:58;6.00;;;5.30;;
17985;SDS011;9118;48.122;11.546;2022-07-10T00:29:29;6.10;;;5.50;;
17985;SDS011;9118;48.122;11.546;2022-07-10T00:31:56;7.70;;;5.53;;
17985;SDS011;9118;48.122;11.546;2022-07-10T00:34:41;6.90;;;6.28;;
17985;SDS011;9118;48.122;11.546;2022-07-10T00:37:09;7.00;;;6.30;;
17985;SDS011;9118;48.122;11.546;2022-07-10T00:39:36;7.35;;;6.05;;
17985;SDS011;9118;48.122;11.546;2022-07-10T00:42:07;7.87;;;7.07;;
17985;SDS011;9118;48.122;11.546;2022-07-10T00:44:37;7.40;;;6.70;;
17985;SDS011;9118;48.122;11.546;2022-07-10T00:47:08;8.20;;;7.40;;
17985;SDS011;9118;48.122;11.546;2022-07-10T00:49:37;8.63;;;7.70;;
17985;SDS011;9118;48.122;11.546;2022-07-10T00:52:08;8.30;;;7.50;;
17985;SDS011;9118;48.122;11.546;2022-07-10T00:54:37;8.00;;;7.20;;
17985;SDS011;9118;48.122;11.546;2022-07-10T00:57:06;9.00;;;7.13;;
17985;SDS011;9118;48.122;11.546;2022-07-10T00:59:35;8.40;;;7.60;;
17985;SDS011;9118;48.122;11.546;2022-07-10T01:02:06;10.77;;;7.83;;
17985;SDS011;9118;48.122;11.546;2022-07-10T01:04:34;8.68;;;7.50;;
17985;SDS011;9118;48.122;11.546;2022-07-10T01:07:02;8.20;;;7.40;;
17985;SDS011;9118;48.122;11.546;2022-07-10T01:09:31;8.07;;;7.30;;
17985;SDS011;9118;48.122;11.546;2022-07-10T01:11:59;8.00;;;7.20;;
17985;SDS011;9118;48.122;11.546;2022-07-10T01:14:28;7.50;;;6.80;;
17985;SDS011;9118;48.122;11.546;2022-07-10T01:16:59;7.93;;;7.10;;
17985;SDS011;9118;48.122;11.546;2022-07-10T01:19:26;7.83;;;7.13;;
17985;SDS011;9118;48.122;11.546;2022-07-10T01:21:56;7.87;;;6.90;;
17985;SDS011;9118;48.122;11.546;2022-07-10T01:24:24;7.20;;;6.23;;
17985;SDS011;9118;48.122;11.546;2022-07-10T01:26:51;7.57;;;6.93;;
17985;SDS011;9118;48.122;11.546;2022-07-10T01:29:19;7.30;;;6.70;;
17985;SDS011;9118;48.122;11.546;2022-07-10T01:31:51;7.33;;;6.70;;
17985;SDS011;9118;48.122;11.546;2022-07-10T01:34:19;7.10;;;6.50;;
17985;SDS011;9118;48.122;11.546;2022-07-10T01:36:46;7.83;;;7.03;;
17985;SDS011;9118;48.122;11.546;2022-07-10T01:39:16;7.73;;;6.93;;
17985;SDS011;9118;48.122;11.546;2022-07-10T01:41:43;7.77;;;7.13;;
17985;SDS011;9118;48.122;11.546;2022-07-10T01:44:11;9.97;;;7.70;;
17985;SDS011;9118;48.122;11.546;2022-07-10T01:46:43;8.10;;;7.40;;
17985;SDS011;9118;48.122;11.546;2022-07-10T01:49:13;8.07;;;7.30;;
17985;SDS011;9118;48.122;11.546;2022-07-10T01:51:44;10.00;;;8.90;;
17985;SDS011;9118;48.122;11.546;2022-07-10T01:54:12;9.40;;;8.40;;
17985;SDS011;9118;48.122;11.546;2022-07-10T01:56:41;13.40;;;9.40;;
17985;SDS011;9118;48.122;11.546;2022-07-10T01:59:08;9.73;;;8.30;;
17985;SDS011;9118;48.122;11.546;2022-07-10T02:01:36;9.83;;;8.23;;
17985;SDS011;9118;48.122;11.546;2022-07-10T02:04:03;8.50;;;7.17;;
17985;SDS011;9118;48.122;11.546;2022-07-10T02:06:48;8.13;;;7.33;;
17985;SDS011;9118;48.122;11.546;2022-07-10T02:09:15;8.53;;;7.73;;
17985;SDS011;9118;48.122;11.546;2022-07-10T02:11:44;7.63;;;6.93;;
17985;SDS011;9118;48.122;11.546;2022-07-10T02:14:14;7.53;;;6.83;;
17985;SDS011;9118;48.122;11.546;2022-07-10T02:16:41;7.10;;;6.50;;
17985;SDS011;9118;48.122;11.546;2022-07-10T02:19:09;7.80;;;7.00;;
17985;SDS011;9118;48.122;11.546;2022-07-10T02:21:38;7.83;;;7.13;;
17985;SDS011;9118;48.122;11.546;2022-07-10T02:24:05;7.50;;;6.83;;
17985;SDS011;9118;48.122;11.546;2022-07-10T02:26:34;7.53;;;6.80;;
17985;SDS011;9118;48.122;11.546;2022-07-10T02:29:03;8.10;;;6.70;;
17985;SDS011;9118;48.122;11.546;2022-07-10T02:31:30;7.73;;;7.03;;
17985;SDS011;9118;48.122;11.546;2022-07-10T02:33:59;7.83;;;6.97;;
17985;SDS011;9118;48.122;11.546;2022-07-10T02:36:27;7.80;;;7.10;;
17985;SDS011;9118;48.122;11.546;2022-07-10T02:38:54;7.73;;;7.03;;
17985;SDS011;9118;48.122;11.546;2022-07-10T02:41:21;8.57;;;7.77;;
17985;SDS011;9118;48.122;11.546;2022-07-10T02:43:49;7.50;;;6.77;;
17985;SDS011;9118;48.122;11.546;2022-07-10T02:46:17;8.27;;;7.23;;
17985;SDS011;9118;48.122;11.546;2022-07-10T02:48:45;8.53;;;7.67;;
17985;SDS011;9118;48.122;11.546;2022-07-10T02:51:12;7.97;;;7.17;;
17985;SDS011;9118;48.122;11.546;2022-07-10T02:53:42;7.50;;;6.90;;
17985;SDS011;9118;48.122;11.546;2022-07-10T02:56:09;8.83;;;7.47;;
17985;SDS011;9118;48.122;11.546;2022-07-10T02:58:37;8.43;;;7.63;;
17985;SDS011;9118;48.122;11.546;2022-07-10T03:01:06;8.90;;;8.00;;
17985;SDS011;9118;48.122;11.546;2022-07-10T03:03:43;8.13;;;7.43;;
17985;SDS011;9118;48.122;11.546;2022-07-10T03:06:14;8.47;;;7.77;;
17985;SDS011;9118;48.122;11.546;2022-07-10T03:08:43;8.43;;;7.63;;
17985;SDS011;9118;48.122;11.546;2022-07-10T03:11:12;9.13;;;8.00;;
17985;SDS011;9118;48.122;11.546;2022-07-10T03:13:39;8.90;;;8.10;;
17985;SDS011;9118;48.122;11.546;2022-07-10T03:16:07;8.83;;;8.00;;
17985;SDS011;9118;48.122;11.546;2022-07-10T03:18:34;9.03;;;8.23;;
17985;SDS011;9118;48.122;11.546;2022-07-10T03:21:02;9.00;;;8.07;;
17985;SDS011;9118;48.122;11.546;2022-07-10T03:23:30;9.13;;;8.17;;
17985;SDS011;9118;48.122;11.546;2022-07-10T03:25:57;9.20;;;8.30;;
17985;SDS011;9118;48.122;11.546;2022-07-10T03:28:25;8.60;;;7.83;;
17985;SDS011;9118;48.122;11.546;2022-07-10T03:30:54;9.00;;;8.10;;
17985;SDS011;9118;48.122;11.546;2022-07-10T03:33:23;8.80;;;7.90;;
17985;SDS011;9118;48.122;11.546;2022-07-10T03:35:50;8.73;;;7.93;;
17985;SDS011;9118;48.122;11.546;2022-07-10T03:38:19;9.63;;;8.20;;
17985;SDS011;9118;48.122;11.546;2022-07-10T03:40:46;9.50;;;8.60;;
17985;SDS011;9118;48.122;11.546;2022-07-10T03:43:14;8.70;;;7.90;;
17985;SDS011;9118;48.122;11.546;2022-07-10T03:45:42;9.53;;;8.57;;
17985;SDS011;9118;48.122;11.546;2022-07-10T03:48:11;8.77;;;8.00;;
17985;SDS011;9118;48.122;11.546;2022-07-10T03:50:39;8.97;;;8.17;;
17985;SDS011;9118;48.122;11.546;2022-07-10T03:53:07;9.03;;;8.23;;
17985;SDS011;9118;48.122;11.546;2022-07-10T03:55:36;9.17;;;8.37;;
17985;SDS011;9118;48.122;11.546;2022-07-10T03:58:04;9.37;;;8.47;;
17985;SDS011;9118;48.122;11.546;2022-07-10T04:00:30;9.80;;;8.80;;
17985;SDS011;9118;48.122;11.546;2022-07-10T04:02:59;9.10;;;8.30;;
17985;SDS011;9118;48.122;11.546;2022-07-10T04:05:27;9.60;;;8.70;;
17985;SDS011;9118;48.122;11.546;2022-07-10T04:07:56;9.17;;;8.27;;
17985;SDS011;9118;48.122;11.546;2022-07-10T04:10:24;9.13;;;8.33;;
17985;SDS011;9118;48.122;11.546;2022-07-10T04:12:54;9.77;;;8.67;;
17985;SDS011;9118;48.122;11.546;2022-07-10T04:15:22;9.90;;;8.40;;
17985;SDS011;9118;48.122;11.546;2022-07-10T04:17:51;8.97;;;8.17;;
17985;SDS011;9118;48.122;11.546;2022-07-10T04:20:18;8.83;;;7.93;;
17985;SDS011;9118;48.122;11.546;2022-07-10T04:22:46;9.80;;;8.90;;
17985;SDS011;9118;48.122;11.546;2022-07-10T04:25:14;8.93;;;8.13;;
17985;SDS011;9118;48.122;11.546;2022-07-10T04:27:41;9.47;;;8.43;;
17985;SDS011;9118;48.122;11.546;2022-07-10T04:30:11;9.27;;;8.13;;
17985;SDS011;9118;48.122;11.546;2022-07-10T04:32:38;9.17;;;8.30;;
17985;SDS011;9118;48.122;11.546;2022-07-10T04:35:07;8.67;;;7.83;;
17985;SDS011;9118;48.122;11.546;2022-07-10T04:37:35;9.10;;;8.20;;
17985;SDS011;9118;48.122;11.546;2022-07-10T04:40:03;10.03;;;8.27;;
17985;SDS011;9118;48.122;11.546;2022-07-10T04:42:30;9.50;;;8.00;;
17985;SDS011;9118;48.122;11.546;2022-07-10T04:44:57;9.27;;;8.20;;
17985;SDS011;9118;48.122;11.546;2022-07-10T04:47:26;8.60;;;7.80;;
17985;SDS011;9118;48.122;11.546;2022-07-10T04:49:53;9.10;;;8.30;;
17985;SDS011;9118;48.122;11.546;2022-07-10T04:52:20;8.77;;;7.87;;
17985;SDS011;9118;48.122;11.546;2022-07-10T04:54:51;8.57;;;7.87;;
17985;SDS011;9118;48.122;11.546;2022-07-10T04:57:18;8.60;;;7.53;;
17985;SDS011;9118;48.122;11.546;2022-07-10T04:59:45;8.67;;;7.87;;
17985;SDS011;9118;48.122;11.546;2022-07-10T05:02:12;9.40;;;8.40;;
17985;SDS011;9118;48.122;11.546;2022-07-10T05:04:41;11.23;;;8.43;;
17985;SDS011;9118;48.122;11.546;2022-07-10T05:07:09;9.23;;;8.27;;
17985;SDS011;9118;48.122;11.546;2022-07-10T05:09:36;10.07;;;8.77;;
17985;SDS011;9118;48.122;11.546;2022-07-10T05:12:04;9.80;;;8.90;;
17985;SDS011;9118;48.122;11.546;2022-07-10T05:14:31;9.33;;;8.43;;
17985;SDS011;9118;48.122;11.546;2022-07-10T05:16:59;9.60;;;8.57;;
17985;SDS011;9118;48.122;11.546;2022-07-10T05:19:26;9.90;;;8.90;;
17985;SDS011;9118;48.122;11.546;2022-07-10T05:21:55;10.40;;;9.40;;
17985;SDS011;9118;48.122;11.546;2022-07-10T05:24:26;11.33;;;9.50;;
17985;SDS011;9118;48.122;11.546;2022-07-10T05:26:55;10.57;;;9.47;;
17985;SDS011;9118;48.122;11.546;2022-07-10T05:29:22;11.03;;;9.70;;
17985;SDS011;9118;48.122;11.546;2022-07-10T05:31:49;10.87;;;9.50;;
17985;SDS011;9118;48.122;11.546;2022-07-10T05:34:16;10.10;;;9.13;;
17985;SDS011;9118;48.122;11.546;2022-07-10T05:36:43;16.43;;;10.13;;
17985;SDS011;9118;48.122;11.546;2022-07-10T05:39:12;11.57;;;10.37;;
17985;SDS011;9118;48.122;11.546;2022-07-10T05:41:39;12.40;;;11.20;;
17985;SDS011;9118;48.122;11.546;2022-07-10T05:44:07;11.37;;;10.20;;
17985;SDS011;9118;48.122;11.546;2022-07-10T05:46:34;12.10;;;10.80;;
17985;SDS011;9118;48.122;11.546;2022-07-10T05:49:01;13.90;;;10.70;;
17985;SDS011;9118;48.122;11.546;2022-07-10T05:51:29;12.70;;;11.37;;
17985;SDS011;9118;48.122;11.546;2022-07-10T05:53:56;11.73;;;10.53;;
17985;SDS011;9118;48.122;11.546;2022-07-10T05:56:24;13.20;;;11.10;;
17985;SDS011;9118;48.122;11.546;2022-07-10T05:58:51;13.20;;;11.80;;
17985;SDS011;9118;48.122;11.546;2022-07-10T06:01:23;13.27;;;10.23;;
17985;SDS011;9118;48.122;11.546;2022-07-10T06:03:51;13.53;;;11.00;;
17985;SDS011;9118;48.122;11.546;2022-07-10T06:06:19;12.37;;;11.13;;
17985;SDS011;9118;48.122;11.546;2022-07-10T06:08:46;13.10;;;11.53;;
17985;SDS011;9118;48.122;11.546;2022-07-10T06:11:13;13.67;;;11.53;;
17985;SDS011;9118;48.122;11.546;2022-07-10T06:13:42;13.57;;;11.60;;
17985;SDS011;9118;48.122;11.546;2022-07-10T06:16:09;12.47;;;11.17;;
17985;SDS011;9118;48.122;11.546;2022-07-10T06:18:36;12.23;;;11.07;;
17985;SDS011;9118;48.122;11.546;2022-07-10T06:21:04;12.77;;;11.13;;
17985;SDS011;9118;48.122;11.546;2022-07-10T06:23:33;12.13;;;10.90;;
17985;SDS011;9118;48.122;11.546;2022-07-10T06:26:00;12.27;;;11.03;;
17985;SDS011;9118;48.122;11.546;2022-07-10T06:28:27;12.70;;;11.40;;
17985;SDS011;9118;48.122;11.546;2022-07-10T06:30:55;12.90;;;11.60;;
17985;SDS011;9118;48.122;11.546;2022-07-10T06:33:22;12.23;;;11.03;;
17985;SDS011;9118;48.122;11.546;2022-07-10T06:35:49;15.00;;;11.73;;
17985;SDS011;9118;48.122;11.546;2022-07-10T06:38:16;13.30;;;11.90;;
17985;SDS011;9118;48.122;11.546;2022-07-10T06:40:43;12.93;;;11.53;;
17985;SDS011;9118;48.122;11.546;2022-07-10T06:43:13;13.33;;;11.93;;
17985;SDS011;9118;48.122;11.546;2022-07-10T06:45:40;13.97;;;12.23;;
17985;SDS011;9118;48.122;11.546;2022-07-10T06:48:17;13.73;;;12.03;;
17985;SDS011;9118;48.122;11.546;2022-07-10T06:54:10;13.47;;;12.07;;
17985;SDS011;9118;48.122;11.546;2022-07-10T06:56:39;12.60;;;11.27;;
17985;SDS011;9118;48.122;11.546;2022-07-10T06:59:06;14.03;;;12.57;;
17985;SDS011;9118;48.122;11.546;2022-07-10T07:01:36;13.70;;;12.30;;
17985;SDS011;9118;48.122;11.546;2022-07-10T07:04:04;13.93;;;11.57;;
17985;SDS011;9118;48.122;11.546;2022-07-10T07:06:32;15.77;;;12.00;;
17985;SDS011;9118;48.122;11.546;2022-07-10T07:09:00;13.07;;;11.77;;
17985;SDS011;9118;48.122;11.546;2022-07-10T07:11:27;12.80;;;11.50;;
17985;SDS011;9118;48.122;11.546;2022-07-10T07:13:55;11.77;;;10.67;;
17985;SDS011;9118;48.122;11.546;2022-07-10T07:16:22;12.27;;;11.03;;
17985;SDS011;9118;48.122;11.546;2022-07-10T07:19:02;12.07;;;10.87;;
17985;SDS011;9118;48.122;11.546;2022-07-10T07:21:32;12.13;;;10.60;;
17985;SDS011;9118;48.122;11.546;2022-07-10T07:24:16;11.60;;;10.47;;
17985;SDS011;9118;48.122;11.546;2022-07-10T07:26:48;12.00;;;10.80;;
17985;SDS011;9118;48.122;11.546;2022-07-10T07:29:15;12.20;;;10.97;;
17985;SDS011;9118;48.122;11.546;2022-07-10T07:31:43;11.43;;;10.43;;
17985;SDS011;9118;48.122;11.546;2022-07-10T07:34:12;13.27;;;11.30;;
17985;SDS011;9118;48.122;11.546;2022-07-10T07:36:39;11.67;;;10.37;;
17985;SDS011;9118;48.122;11.546;2022-07-10T07:39:07;12.50;;;11.30;;
17985;SDS011;9118;48.122;11.546;2022-07-10T07:41:40;11.87;;;10.67;;
17985;SDS011;9118;48.122;11.546;2022-07-10T07:44:07;11.57;;;10.37;;
17985;SDS011;9118;48.122;11.546;2022-07-10T07:46:36;12.10;;;10.87;;
17985;SDS011;9118;48.122;11.546;2022-07-10T07:49:03;12.47;;;10.40;;
17985;SDS011;9118;48.122;11.546;2022-07-10T07:51:34;10.47;;;9.37;;
17985;SDS011;9118;48.122;11.546;2022-07-10T07:54:01;11.13;;;9.90;;
17985;SDS011;9118;48.122;11.546;2022-07-10T07:56:28;10.00;;;9.03;;
17985;SDS011;9118;48.122;11.546;2022-07-10T07:58:56;12.10;;;9.87;;
17985;SDS011;9118;48.122;11.546;2022-07-10T08:01:24;9.50;;;8.43;;
17985;SDS011;9118;48.122;11.546;2022-07-10T08:03:51;10.67;;;9.57;;
17985;SDS011;9118;48.122;11.546;2022-07-10T08:06:24;9.47;;;8.07;;
17985;SDS011;9118;48.122;11.546;2022-07-10T08:09:06;9.00;;;8.13;;
17985;SDS011;9118;48.122;11.546;2022-07-10T08:11:34;9.90;;;8.03;;
17985;SDS011;9118;48.122;11.546;2022-07-10T08:14:02;9.37;;;7.17;;
17985;SDS011;9118;48.122;11.546;2022-07-10T08:16:31;8.20;;;7.03;;
17985;SDS011;9118;48.122;11.546;2022-07-10T08:18:58;8.13;;;7.33;;
17985;SDS011;9118;48.122;11.546;2022-07-10T08:21:27;8.60;;;7.10;;
17985;SDS011;9118;48.122;11.546;2022-07-10T08:23:55;7.00;;;6.37;;
17985;SDS011;9118;48.122;11.546;2022-07-10T08:26:25;7.33;;;6.63;;
17985;SDS011;9118;48.122;11.546;2022-07-10T08:28:55;7.27;;;6.30;;
17985;SDS011;9118;48.122;11.546;2022-07-10T08:31:25;6.40;;;5.80;;
17985;SDS011;9118;48.122;11.546;2022-07-10T08:34:00;6.93;;;6.00;;
17985;SDS011;9118;48.122;11.546;2022-07-10T08:36:27;7.20;;;5.93;;
17985;SDS011;9118;48.122;11.546;2022-07-10T08:38:54;6.37;;;5.77;;
17985;SDS011;9118;48.122;11.546;2022-07-10T08:41:25;5.33;;;4.63;;
17985;SDS011;9118;48.122;11.546;2022-07-10T08:43:53;7.47;;;4.83;;
17985;SDS011;9118;48.122;11.546;2022-07-10T08:46:20;6.47;;;4.50;;
17985;SDS011;9118;48.122;11.546;2022-07-10T08:48:48;8.50;;;5.27;;
17985;SDS011;9118;48.122;11.546;2022-07-10T08:51:19;5.27;;;4.80;;
17985;SDS011;9118;48.122;11.546;2022-07-10T08:54:03;6.57;;;4.60;;
17985;SDS011;9118;48.122;11.546;2022-07-10T08:56:35;5.00;;;4.50;;
17985;SDS011;9118;48.122;11.546;2022-07-10T08:59:03;4.83;;;4.43;;
17985;SDS011;9118;48.122;11.546;2022-07-10T09:01:31;7.33;;;4.57;;
17985;SDS011;9118;48.122;11.546;2022-07-10T09:06:49;4.60;;;4.20;;
17985;SDS011;9118;48.122;11.546;2022-07-10T09:09:19;5.20;;;4.63;;
17985;SDS011;9118;48.122;11.546;2022-07-10T09:15:14;4.47;;;4.07;;
17985;SDS011;9118;48.122;11.546;2022-07-10T09:17:52;7.43;;;4.67;;
17985;SDS011;9118;48.122;11.546;2022-07-10T09:20:43;4.77;;;4.27;;
17985;SDS011;9118;48.122;11.546;2022-07-10T09:23:16;4.33;;;3.90;;
17985;SDS011;9118;48.122;11.546;2022-07-10T09:25:53;5.13;;;3.83;;
17985;SDS011;9118;48.122;11.546;2022-07-10T09:28:25;4.35;;;3.95;;
17985;SDS011;9118;48.122;11.546;2022-07-10T09:30:52;6.00;;;3.93;;
17985;SDS011;9118;48.122;11.546;2022-07-10T09:33:24;4.77;;;3.80;;
17985;SDS011;9118;48.122;11.546;2022-07-10T09:36:11;4.60;;;3.60;;
17985;SDS011;9118;48.122;11.546;2022-07-10T09:38:50;6.07;;;5.20;;
17985;SDS011;9118;48.122;11.546;2022-07-10T09:41:29;5.90;;;3.70;;
17985;SDS011;9118;48.122;11.546;2022-07-10T09:43:59;5.50;;;4.93;;
17985;SDS011;9118;48.122;11.546;2022-07-10T09:46:32;3.87;;;3.43;;
17985;SDS011;9118;48.122;11.546;2022-07-10T09:49:02;4.10;;;3.20;;
17985;SDS011;9118;48.122;11.546;2022-07-10T09:51:31;3.80;;;3.10;;
17985;SDS011;9118;48.122;11.546;2022-07-10T09:54:01;3.70;;;3.33;;
17985;SDS011;9118;48.122;11.546;2022-07-10T09:56:33;3.83;;;3.33;;
17985;SDS011;9118;48.122;11.546;2022-07-10T09:59:09;3.40;;;3.10;;
17985;SDS011;9118;48.122;11.546;2022-07-10T10:01:40;3.70;;;3.40;;
17985;SDS011;9118;48.122;11.546;2022-07-10T10:04:11;3.33;;;3.00;;
17985;SDS011;9118;48.122;11.546;2022-07-10T10:06:41;6.07;;;3.20;;
17985;SDS011;9118;48.122;11.546;2022-07-10T10:09:31;5.13;;;3.50;;
17985;SDS011;9118;48.122;11.546;2022-07-10T10:12:07;5.90;;;3.93;;
17985;SDS011;9118;48.122;11.546;2022-07-10T10:14:43;3.33;;;3.10;;
17985;SDS011;9118;48.122;11.546;2022-07-10T10:17:26;3.43;;;3.13;;
17985;SDS011;9118;48.122;11.546;2022-07-10T10:19:59;3.07;;;2.87;;
17985;SDS011;9118;48.122;11.546;2022-07-10T10:22:45;6.90;;;3.27;;
17985;SDS011;9118;48.122;11.546;2022-07-10T10:25:13;4.77;;;3.10;;
17985;SDS011;9118;48.122;11.546;2022-07-10T10:27:42;3.42;;;2.72;;
17985;SDS011;9118;48.122;11.546;2022-07-10T10:30:12;4.13;;;2.70;;
17985;SDS011;9118;48.122;11.546;2022-07-10T10:32:39;3.80;;;2.90;;
17985;SDS011;9118;48.122;11.546;2022-07-10T10:35:07;3.60;;;2.73;;
17985;SDS011;9118;48.122;11.546;2022-07-10T10:37:35;4.47;;;2.67;;
17985;SDS011;9118;48.122;11.546;2022-07-10T10:40:04;5.07;;;3.00;;
17985;SDS011;9118;48.122;11.546;2022-07-10T10:42:35;2.90;;;2.70;;
17985;SDS011;9118;48.122;11.546;2022-07-10T10:48:00;3.37;;;3.00;;
17985;SDS011;9118;48.122;11.546;2022-07-10T10:50:37;3.13;;;2.70;;
17985;SDS011;9118;48.122;11.546;2022-07-10T10:53:05;4.83;;;2.90;;
17985;SDS011;9118;48.122;11.546;2022-07-10T10:55:40;2.80;;;2.60;;
17985;SDS011;9118;48.122;11.546;2022-07-10T10:58:14;4.50;;;2.78;;
17985;SDS011;9118;48.122;11.546;2022-07-10T11:00:44;3.43;;;3.13;;
17985;SDS011;9118;48.122;11.546;2022-07-10T11:03:20;3.70;;;2.77;;
17985;SDS011;9118;48.122;11.546;2022-07-10T11:05:52;3.30;;;3.00;;
17985;SDS011;9118;48.122;11.546;2022-07-10T11:08:35;3.05;;;2.83;;
17985;SDS011;9118;48.122;11.546;2022-07-10T11:14:08;3.05;;;2.78;;
17985;SDS011;9118;48.122;11.546;2022-07-10T11:16:47;4.37;;;2.90;;
17985;SDS011;9118;48.122;11.546;2022-07-10T11:19:19;3.33;;;2.80;;
17985;SDS011;9118;48.122;11.546;2022-07-10T11:21:54;2.88;;;2.67;;
17985;SDS011;9118;48.122;11.546;2022-07-10T11:24:39;6.30;;;3.23;;
17985;SDS011;9118;48.122;11.546;2022-07-10T11:27:15;3.10;;;2.80;;
17985;SDS011;9118;48.122;11.546;2022-07-10T11:30:03;3.53;;;2.87;;
17985;SDS011;9118;48.122;11.546;2022-07-10T11:32:34;3.13;;;2.53;;
17985;SDS011;9118;48.122;11.546;2022-07-10T11:35:05;3.10;;;2.73;;
17985;SDS011;9118;48.122;11.546;2022-07-10T11:37:34;2.53;;;2.33;;
17985;SDS011;9118;48.122;11.546;2022-07-10T11:40:07;2.60;;;2.40;;
17985;SDS011;9118;48.122;11.546;2022-07-10T11:42:51;3.70;;;2.47;;
17985;SDS011;9118;48.122;11.546;2022-07-10T11:47:51;4.03;;;2.30;;
17985;SDS011;9118;48.122;11.546;2022-07-10T11:50:19;5.13;;;2.33;;
17985;SDS011;9118;48.122;11.546;2022-07-10T11:52:46;2.80;;;2.60;;
17985;SDS011;9118;48.122;11.546;2022-07-10T11:55:15;2.87;;;2.20;;
17985;SDS011;9118;48.122;11.546;2022-07-10T11:57:42;2.43;;;2.23;;
17985;SDS011;9118;48.122;11.546;2022-07-10T12:00:20;2.73;;;2.23;;
17985;SDS011;9118;48.122;11.546;2022-07-10T12:02:49;3.17;;;2.50;;
17985;SDS011;9118;48.122;11.546;2022-07-10T12:08:01;5.22;;;2.35;;
17985;SDS011;9118;48.122;11.546;2022-07-10T12:10:29;2.95;;;2.33;;
17985;SDS011;9118;48.122;11.546;2022-07-10T12:13:04;3.30;;;3.00;;
17985;SDS011;9118;48.122;11.546;2022-07-10T12:15:33;3.13;;;2.30;;
17985;SDS011;9118;48.122;11.546;2022-07-10T12:18:02;3.37;;;2.50;;
17985;SDS011;9118;48.122;11.546;2022-07-10T12:20:30;3.47;;;2.47;;
17985;SDS011;9118;48.122;11.546;2022-07-10T12:23:10;4.45;;;3.08;;
17985;SDS011;9118;48.122;11.546;2022-07-10T12:25:40;2.60;;;2.40;;
17985;SDS011;9118;48.122;11.546;2022-07-10T12:28:08;3.22;;;2.30;;
17985;SDS011;9118;48.122;11.546;2022-07-10T12:30:37;3.85;;;2.25;;
17985;SDS011;9118;48.122;11.546;2022-07-10T12:33:09;3.78;;;2.35;;
17985;SDS011;9118;48.122;11.546;2022-07-10T12:35:53;4.68;;;2.25;;
17985;SDS011;9118;48.122;11.546;2022-07-10T12:38:22;5.45;;;3.28;;
17985;SDS011;9118;48.122;11.546;2022-07-10T12:41:04;3.87;;;2.07;;
17985;SDS011;9118;48.122;11.546;2022-07-10T12:43:33;3.83;;;2.22;;
17985;SDS011;9118;48.122;11.546;2022-07-10T12:46:11;4.20;;;2.30;;
17985;SDS011;9118;48.122;11.546;2022-07-10T12:48:40;2.40;;;2.20;;
17985;SDS011;9118;48.122;11.546;2022-07-10T12:51:29;2.92;;;2.30;;
17985;SDS011;9118;48.122;11.546;2022-07-10T12:53:58;3.03;;;2.17;;
17985;SDS011;9118;48.122;11.546;2022-07-10T12:56:30;2.40;;;2.20;;
17985;SDS011;9118;48.122;11.546;2022-07-10T12:58:59;2.30;;;2.10;;
17985;SDS011;9118;48.122;11.546;2022-07-10T13:01:27;11.27;;;2.53;;
17985;SDS011;9118;48.122;11.546;2022-07-10T13:03:58;2.50;;;2.30;;
17985;SDS011;9118;48.122;11.546;2022-07-10T13:09:23;5.80;;;2.20;;
17985;SDS011;9118;48.122;11.546;2022-07-10T13:11:52;2.30;;;2.10;;
17985;SDS011;9118;48.122;11.546;2022-07-10T13:14:21;2.35;;;2.15;;
17985;SDS011;9118;48.122;11.546;2022-07-10T13:16:49;2.33;;;2.13;;
17985;SDS011;9118;48.122;11.546;2022-07-10T13:19:16;2.33;;;2.20;;
17985;SDS011;9118;48.122;11.546;2022-07-10T13:21:48;2.40;;;2.20;;
17985;SDS011;9118;48.122;11.546;2022-07-10T13:24:15;2.42;;;2.22;;
17985;SDS011;9118;48.122;11.546;2022-07-10T13:26:42;2.50;;;2.30;;
17985;SDS011;9118;48.122;11.546;2022-07-10T13:29:10;4.23;;;2.50;;
17985;SDS011;9118;48.122;11.546;2022-07-10T13:31:38;2.77;;;2.43;;
17985;SDS011;9118;48.122;11.546;2022-07-10T13:34:05;2.50;;;2.30;;
17985;SDS011;9118;48.122;11.546;2022-07-10T13:36:32;2.90;;;2.17;;
17985;SDS011;9118;48.122;11.546;2022-07-10T13:39:12;2.92;;;2.00;;
17985;SDS011;9118;48.122;11.546;2022-07-10T13:41:40;3.63;;;2.17;;
17985;SDS011;9118;48.122;11.546;2022-07-10T13:44:08;3.28;;;2.30;;
17985;SDS011;9118;48.122;11.546;2022-07-10T13:46:36;2.35;;;2.15;;
17985;SDS011;9118;48.122;11.546;2022-07-10T13:49:05;2.67;;;2.10;;
17985;SDS011;9118;48.122;11.546;2022-07-10T13:51:33;2.20;;;2.00;;
17985;SDS011;9118;48.122;11.546;2022-07-10T13:57:15;3.05;;;2.03;;
17985;SDS011;9118;48.122;11.546;2022-07-10T13:59:52;2.88;;;2.05;;
17985;SDS011;9118;48.122;11.546;2022-07-10T14:02:33;2.25;;;1.80;;
17985;SDS011;9118;48.122;11.546;2022-07-10T14:05:01;3.17;;;2.25;;
17985;SDS011;9118;48.122;11.546;2022-07-10T14:07:28;3.15;;;1.65;;
17985;SDS011;9118;48.122;11.546;2022-07-10T14:10:10;2.28;;;1.77;;
17985;SDS011;9118;48.122;11.546;2022-07-10T14:12:55;3.72;;;1.80;;
17985;SDS011;9118;48.122;11.546;2022-07-10T14:15:23;1.80;;;1.70;;
17985;SDS011;9118;48.122;11.546;2022-07-10T14:17:59;3.88;;;1.80;;
17985;SDS011;9118;48.122;11.546;2022-07-10T14:20:27;2.95;;;1.70;;
17985;SDS011;9118;48.122;11.546;2022-07-10T14:23:22;2.22;;;1.80;;
17985;SDS011;9118;48.122;11.546;2022-07-10T14:26:03;3.15;;;1.98;;
17985;SDS011;9118;48.122;11.546;2022-07-10T14:31:19;1.67;;;1.58;;
17985;SDS011;9118;48.122;11.546;2022-07-10T14:33:46;1.77;;;1.67;;
17985;SDS011;9118;48.122;11.546;2022-07-10T14:36:13;2.45;;;1.60;;
17985;SDS011;9118;48.122;11.546;2022-07-10T14:38:40;1.77;;;1.50;;
17985;SDS011;9118;48.122;11.546;2022-07-10T14:41:07;2.30;;;1.70;;
17985;SDS011;9118;48.122;11.546;2022-07-10T14:43:35;1.70;;;1.58;;
17985;SDS011;9118;48.122;11.546;2022-07-10T14:46:08;1.70;;;1.58;;
17985;SDS011;9118;48.122;11.546;2022-07-10T14:48:36;2.47;;;1.50;;
17985;SDS011;9118;48.122;11.546;2022-07-10T14:51:03;2.65;;;1.70;;
17985;SDS011;9118;48.122;11.546;2022-07-10T14:53:32;1.60;;;1.50;;
17985;SDS011;9118;48.122;11.546;2022-07-10T14:56:01;1.70;;;1.50;;
17985;SDS011;9118;48.122;11.546;2022-07-10T14:58:29;2.33;;;1.35;;
17985;SDS011;9118;48.122;11.546;2022-07-10T15:00:56;2.80;;;1.60;;
17985;SDS011;9118;48.122;11.546;2022-07-10T15:03:26;2.13;;;1.55;;
17985;SDS011;9118;48.122;11.546;2022-07-10T15:05:53;3.28;;;1.58;;
17985;SDS011;9118;48.122;11.546;2022-07-10T15:08:22;1.55;;;1.40;;
17985;SDS011;9118;48.122;11.546;2022-07-10T15:10:49;1.40;;;1.30;;
17985;SDS011;9118;48.122;11.546;2022-07-10T15:13:17;2.45;;;2.00;;
17985;SDS011;9118;48.122;11.546;2022-07-10T15:15:44;3.03;;;1.67;;
17985;SDS011;9118;48.122;11.546;2022-07-10T15:18:13;2.60;;;1.50;;
17985;SDS011;9118;48.122;11.546;2022-07-10T15:20:42;2.10;;;1.60;;
17985;SDS011;9118;48.122;11.546;2022-07-10T15:23:10;3.03;;;1.38;;
17985;SDS011;9118;48.122;11.546;2022-07-10T15:25:37;1.60;;;1.48;;
17985;SDS011;9118;48.122;11.546;2022-07-10T15:28:05;3.05;;;1.52;;
17985;SDS011;9118;48.122;11.546;2022-07-10T15:30:33;2.25;;;2.05;;